Airfield :
LOGIN :

Register | Disclaimer

   EN    FR    IT 

 










Legend :    VFR   Marginal VFR   IFR   Intensive IFR   Very Intensive IFR
Visi :
Ceiling :
>= 8 km
>= 3000ft
5 to 8 km
1000 to 3000 ft
1500m to 5 km
500 to 1000 ft
800 to 1500m
200 to 500 ft
< 800m
< 200 ft
Symbols :   Thunderstorms  Fog  Heavy snow  Heavy precipitations  Wind > 20 kt
SIGMETs :     Misc.  Thunderstorms  Icing  Turbulence  Mountain Waves  Volcanic Ashes






- Airport Elevation : 614 ft
- IATA code : CRL


EBCI - Charleroi

CURRENT METAR :
  • 100350Z 23006KT 9999 FEW030 02/01 Q1025 NOSIG

EXPIRED METARs :
  • 100320Z 24005KT 9999 FEW025 SCT035 02/01 Q1025 NOSIG
  • 100250Z 26004KT 220V280 9999 FEW025 SCT035 02/01 Q1025 NOSIG
  • 100220Z 26006KT 9999 FEW025 BKN035 02/01 Q1025 NOSIG
  • 100150Z 26006KT 9999 FEW025 BKN035 03/02 Q1025 NOSIG
  • 100120Z 26005KT 230V300 9999 FEW020 BKN035 03/02 Q1025 NOSIG

TAF TAF EBCI
Valid from the 10 at 00:00 until the 11 at 06:00 UTC


092300Z 1000/1106 28006KT 9999 FEW015 SCT035
PROB30
TEMPO 1003/1008 BKN005
BECMG 1009/1011 19011KT
BECMG 1016/1018 19016G27KT
BECMG 1100/1103 20014KT BKN013
PROB30
TEMPO 1104/1106 4500 RA BKN007



MET'MAP, your aeronautical weather chart ! - Copyright ORBIFLY December 2007 - Disclaimer

ORBIFLY MET'MAP TEAM :

Programming & Development : Alexandra Zaïnal
Concept & original design : Baudouin d'Aumeries
Assistance for programming : Marc-Olivier Méhu
Technical & hardware support : Manuel Goepfert

Contact : metmap@orbifly.com




SOURCES & CREDITS :

   NOAA